sensor_id;sensor_type;location;lat;lon;timestamp;temperature;humidity
14551;DHT22;7362;50.956;4.184;2022-11-12T02:27:08;10.10;99.90
14551;DHT22;7362;50.956;4.184;2022-11-12T19:19:47;12.70;99.90
14551;DHT22;7362;50.956;4.184;2022-11-12T19:22:16;12.80;99.90
14551;DHT22;7362;50.956;4.184;2022-11-12T19:24:41;12.80;99.90
14551;DHT22;7362;50.956;4.184;2022-11-12T19:27:10;12.80;99.90
14551;DHT22;7362;50.956;4.184;2022-11-12T19:29:37;12.90;99.90
14551;DHT22;7362;50.956;4.184;2022-11-12T19:32:09;12.90;99.90
14551;DHT22;7362;50.956;4.184;2022-11-12T19:34:37;12.90;99.90
14551;DHT22;7362;50.956;4.184;2022-11-12T19:37:03;12.80;99.90
14551;DHT22;7362;50.956;4.184;2022-11-12T19:39:29;13.00;99.90
14551;DHT22;7362;50.956;4.184;2022-11-12T19:41:54;12.90;99.90
14551;DHT22;7362;50.956;4.184;2022-11-12T19:44:25;12.90;99.90
14551;DHT22;7362;50.956;4.184;2022-11-12T19:46:52;12.80;99.90
14551;DHT22;7362;50.956;4.184;2022-11-12T19:49:41;12.80;99.90
14551;DHT22;7362;50.956;4.184;2022-11-12T19:52:28;12.60;99.90
14551;DHT22;7362;50.956;4.184;2022-11-12T19:55:00;12.60;99.90
14551;DHT22;7362;50.956;4.184;2022-11-12T19:57:27;12.50;99.90
14551;DHT22;7362;50.956;4.184;2022-11-12T19:59:53;12.50;99.90
14551;DHT22;7362;50.956;4.184;2022-11-12T20:02:20;12.20;99.90
14551;DHT22;7362;50.956;4.184;2022-11-12T20:04:48;12.20;99.90
14551;DHT22;7362;50.956;4.184;2022-11-12T20:07:14;12.20;99.90
14551;DHT22;7362;50.956;4.184;2022-11-12T20:09:40;12.20;99.90
14551;DHT22;7362;50.956;4.184;2022-11-12T20:12:06;12.40;99.90
14551;DHT22;7362;50.956;4.184;2022-11-12T20:14:32;12.30;99.90
14551;DHT22;7362;50.956;4.184;2022-11-12T20:17:00;12.20;99.90
14551;DHT22;7362;50.956;4.184;2022-11-12T20:19:33;12.20;99.90
14551;DHT22;7362;50.956;4.184;2022-11-12T20:22:02;12.10;99.90
14551;DHT22;7362;50.956;4.184;2022-11-12T20:24:32;12.00;99.90
14551;DHT22;7362;50.956;4.184;2022-11-12T20:27:10;11.90;99.90
14551;DHT22;7362;50.956;4.184;2022-11-12T20:29:43;12.00;99.90
14551;DHT22;7362;50.956;4.184;2022-11-12T20:32:13;12.00;99.90
14551;DHT22;7362;50.956;4.184;2022-11-12T20:34:48;11.90;99.90
14551;DHT22;7362;50.956;4.184;2022-11-12T20:37:17;12.00;99.90
14551;DHT22;7362;50.956;4.184;2022-11-12T20:39:44;11.90;99.90
14551;DHT22;7362;50.956;4.184;2022-11-12T20:42:13;11.90;99.90
14551;DHT22;7362;50.956;4.184;2022-11-12T20:44:40;12.60;99.90
14551;DHT22;7362;50.956;4.184;2022-11-12T20:47:07;11.90;99.90
14551;DHT22;7362;50.956;4.184;2022-11-12T20:49:37;11.90;99.90
14551;DHT22;7362;50.956;4.184;2022-11-12T20:52:04;11.90;99.90
14551;DHT22;7362;50.956;4.184;2022-11-12T20:54:30;11.90;99.90
14551;DHT22;7362;50.956;4.184;2022-11-12T20:56:56;12.00;99.90
14551;DHT22;7362;50.956;4.184;2022-11-12T20:59:33;12.10;99.90
14551;DHT22;7362;50.956;4.184;2022-11-12T21:02:05;12.10;99.90
14551;DHT22;7362;50.956;4.184;2022-11-12T21:04:32;12.10;99.90
14551;DHT22;7362;50.956;4.184;2022-11-12T21:06:59;12.00;99.90
14551;DHT22;7362;50.956;4.184;2022-11-12T21:09:31;12.00;99.90
14551;DHT22;7362;50.956;4.184;2022-11-12T21:12:10;12.00;99.90
14551;DHT22;7362;50.956;4.184;2022-11-12T21:14:43;12.00;99.90
14551;DHT22;7362;50.956;4.184;2022-11-12T21:17:28;12.10;99.90
14551;DHT22;7362;50.956;4.184;2022-11-12T21:19:54;12.10;99.90
14551;DHT22;7362;50.956;4.184;2022-11-12T21:22:21;12.00;99.90
14551;DHT22;7362;50.956;4.184;2022-11-12T21:24:47;11.90;99.90
14551;DHT22;7362;50.956;4.184;2022-11-12T21:27:18;11.90;99.90
14551;DHT22;7362;50.956;4.184;2022-11-12T21:29:44;11.80;99.90
14551;DHT22;7362;50.956;4.184;2022-11-12T21:32:10;11.70;99.90
14551;DHT22;7362;50.956;4.184;2022-11-12T21:34:37;11.80;99.90
14551;DHT22;7362;50.956;4.184;2022-11-12T21:37:02;11.70;99.90
14551;DHT22;7362;50.956;4.184;2022-11-12T21:39:29;11.70;99.90
14551;DHT22;7362;50.956;4.184;2022-11-12T21:41:55;11.70;99.90
14551;DHT22;7362;50.956;4.184;2022-11-12T21:44:20;11.70;99.90
14551;DHT22;7362;50.956;4.184;2022-11-12T21:46:46;11.70;99.90
14551;DHT22;7362;50.956;4.184;2022-11-12T21:49:17;11.60;99.90
14551;DHT22;7362;50.956;4.184;2022-11-12T21:51:43;11.80;99.90
14551;DHT22;7362;50.956;4.184;2022-11-12T21:54:09;12.40;99.90
14551;DHT22;7362;50.956;4.184;2022-11-12T21:56:37;11.70;99.90
14551;DHT22;7362;50.956;4.184;2022-11-12T21:59:04;11.70;99.90
14551;DHT22;7362;50.956;4.184;2022-11-12T22:01:32;11.60;99.90
14551;DHT22;7362;50.956;4.184;2022-11-12T22:03:58;11.50;99.90
14551;DHT22;7362;50.956;4.184;2022-11-12T22:06:27;11.60;99.90
14551;DHT22;7362;50.956;4.184;2022-11-12T22:08:55;11.70;99.90
14551;DHT22;7362;50.956;4.184;2022-11-12T22:11:22;12.50;99.90
14551;DHT22;7362;50.956;4.184;2022-11-12T22:13:48;11.70;99.90
14551;DHT22;7362;50.956;4.184;2022-11-12T22:16:16;11.60;99.90
14551;DHT22;7362;50.956;4.184;2022-11-12T22:18:43;11.60;99.90
14551;DHT22;7362;50.956;4.184;2022-11-12T22:21:12;11.90;99.90
14551;DHT22;7362;50.956;4.184;2022-11-12T22:23:39;11.50;99.90
14551;DHT22;7362;50.956;4.184;2022-11-12T22:26:11;11.50;99.90
14551;DHT22;7362;50.956;4.184;2022-11-12T22:28:39;11.50;99.90
14551;DHT22;7362;50.956;4.184;2022-11-12T22:31:07;11.50;99.90
14551;DHT22;7362;50.956;4.184;2022-11-12T22:33:34;11.40;99.90
14551;DHT22;7362;50.956;4.184;2022-11-12T22:36:07;11.40;99.90
14551;DHT22;7362;50.956;4.184;2022-11-12T22:38:41;11.30;99.90
14551;DHT22;7362;50.956;4.184;2022-11-12T22:41:18;11.30;99.90
14551;DHT22;7362;50.956;4.184;2022-11-12T22:43:52;11.30;99.90
14551;DHT22;7362;50.956;4.184;2022-11-12T22:46:20;11.10;99.90
14551;DHT22;7362;50.956;4.184;2022-11-12T22:48:47;11.20;99.90
14551;DHT22;7362;50.956;4.184;2022-11-12T22:51:22;11.10;99.90
14551;DHT22;7362;50.956;4.184;2022-11-12T22:53:55;11.20;99.90
14551;DHT22;7362;50.956;4.184;2022-11-12T22:56:25;11.30;99.90
14551;DHT22;7362;50.956;4.184;2022-11-12T22:58:52;11.30;99.90
14551;DHT22;7362;50.956;4.184;2022-11-12T23:01:26;11.10;99.90
14551;DHT22;7362;50.956;4.184;2022-11-12T23:03:55;11.10;99.90
14551;DHT22;7362;50.956;4.184;2022-11-12T23:06:22;11.10;99.90
14551;DHT22;7362;50.956;4.184;2022-11-12T23:08:48;12.20;99.90
14551;DHT22;7362;50.956;4.184;2022-11-12T23:11:15;11.20;99.90
14551;DHT22;7362;50.956;4.184;2022-11-12T23:13:41;11.80;99.90
14551;DHT22;7362;50.956;4.184;2022-11-12T23:16:12;11.30;99.90
14551;DHT22;7362;50.956;4.184;2022-11-12T23:18:38;11.10;99.90
14551;DHT22;7362;50.956;4.184;2022-11-12T23:21:09;11.10;99.90
14551;DHT22;7362;50.956;4.184;2022-11-12T23:23:38;11.00;99.90
14551;DHT22;7362;50.956;4.184;2022-11-12T23:26:14;11.10;99.90
14551;DHT22;7362;50.956;4.184;2022-11-12T23:28:41;11.10;99.90
14551;DHT22;7362;50.956;4.184;2022-11-12T23:31:18;11.00;99.90
14551;DHT22;7362;50.956;4.184;2022-11-12T23:33:48;10.90;99.90
14551;DHT22;7362;50.956;4.184;2022-11-12T23:36:15;11.00;99.90
14551;DHT22;7362;50.956;4.184;2022-11-12T23:38:43;11.00;99.90
14551;DHT22;7362;50.956;4.184;2022-11-12T23:41:14;10.90;99.90
14551;DHT22;7362;50.956;4.184;2022-11-12T23:43:41;10.80;99.90
14551;DHT22;7362;50.956;4.184;2022-11-12T23:46:08;10.80;99.90
14551;DHT22;7362;50.956;4.184;2022-11-12T23:48:34;11.50;99.90
14551;DHT22;7362;50.956;4.184;2022-11-12T23:51:04;10.90;99.90
14551;DHT22;7362;50.956;4.184;2022-11-12T23:53:37;11.00;99.90
14551;DHT22;7362;50.956;4.184;2022-11-12T23:56:04;11.00;99.90
14551;DHT22;7362;50.956;4.184;2022-11-12T23:58:31;11.00;99.90
